Terminal Aerodrome Forecast
Issued by NWS Sterling, VA

Home | Current Version | Previous Version | Text Only | Print | Product List | Glossary On
Versions: 1 2 3 4 5 6 7 8 9 10 11 12 13 14
000
FTUS41 KLWX 060540
TAFMRB
TAF
KMRB 060540Z 0606/0706 VRB03KT P6SM FEW100
     FM060900 34005KT 3SM BR SCT090
     FM061300 02004KT P6SM BKN130
     FM061700 08004KT P6SM VCSH BKN090
     FM062300 02004KT P6SM BKN050=

USA.gov is the U.S. government's official web portal to all federal, state and local government web resources and services.